sensor_id;sensor_type;location;lat;lon;timestamp;P1;durP1;ratioP1;P2;durP2;ratioP2
53939;SDS011;39850;43.324;21.916;2023-12-14T00:02:29;28.0;;;23.0;;
53939;SDS011;39850;43.324;21.916;2023-12-14T00:07:05;22.0;;;19.0;;
53939;SDS011;39850;43.324;21.916;2023-12-14T00:11:42;22.0;;;19.0;;
53939;SDS011;39850;43.324;21.916;2023-12-14T00:48:36;13.0;;;11.0;;
53939;SDS011;39850;43.324;21.916;2023-12-14T00:53:12;13.0;;;11.0;;
53939;SDS011;39850;43.324;21.916;2023-12-14T00:57:48;11.0;;;10.0;;
53939;SDS011;39850;43.324;21.916;2023-12-14T01:02:25;11.0;;;10.0;;
53939;SDS011;39850;43.324;21.916;2023-12-14T01:07:01;9.0;;;8.0;;
53939;SDS011;39850;43.324;21.916;2023-12-14T01:11:37;9.0;;;8.0;;
53939;SDS011;39850;43.324;21.916;2023-12-14T01:16:14;9.0;;;8.0;;
53939;SDS011;39850;43.324;21.916;2023-12-14T01:20:51;9.0;;;8.0;;
53939;SDS011;39850;43.324;21.916;2023-12-14T01:25:27;9.0;;;8.0;;
53939;SDS011;39850;43.324;21.916;2023-12-14T01:30:08;9.0;;;8.0;;
53939;SDS011;39850;43.324;21.916;2023-12-14T02:06:58;14.0;;;13.0;;
53939;SDS011;39850;43.324;21.916;2023-12-14T02:11:34;14.0;;;13.0;;
53939;SDS011;39850;43.324;21.916;2023-12-14T02:16:11;14.0;;;14.0;;
53939;SDS011;39850;43.324;21.916;2023-12-14T02:20:47;14.0;;;14.0;;
53939;SDS011;39850;43.324;21.916;2023-12-14T02:25:24;15.0;;;14.0;;
53939;SDS011;39850;43.324;21.916;2023-12-14T02:30:01;15.0;;;14.0;;
53939;SDS011;39850;43.324;21.916;2023-12-14T02:34:37;15.0;;;14.0;;
53939;SDS011;39850;43.324;21.916;2023-12-14T02:39:13;15.0;;;14.0;;
53939;SDS011;39850;43.324;21.916;2023-12-14T02:43:50;15.0;;;14.0;;
53939;SDS011;39850;43.324;21.916;2023-12-14T02:48:26;15.0;;;14.0;;
53939;SDS011;39850;43.324;21.916;2023-12-14T02:53:03;15.0;;;14.0;;
53939;SDS011;39850;43.324;21.916;2023-12-14T03:25:20;32.0;;;27.0;;
53939;SDS011;39850;43.324;21.916;2023-12-14T03:29:56;32.0;;;27.0;;
53939;SDS011;39850;43.324;21.916;2023-12-14T03:34:33;32.0;;;27.0;;
53939;SDS011;39850;43.324;21.916;2023-12-14T03:39:09;24.0;;;21.0;;
53939;SDS011;39850;43.324;21.916;2023-12-14T03:43:46;24.0;;;21.0;;
53939;SDS011;39850;43.324;21.916;2023-12-14T03:48:22;17.0;;;15.0;;
53939;SDS011;39850;43.324;21.916;2023-12-14T03:52:58;17.0;;;15.0;;
53939;SDS011;39850;43.324;21.916;2023-12-14T03:57:35;15.0;;;14.0;;
53939;SDS011;39850;43.324;21.916;2023-12-14T04:02:11;15.0;;;14.0;;
53939;SDS011;39850;43.324;21.916;2023-12-14T04:06:47;13.0;;;12.0;;
53939;SDS011;39850;43.324;21.916;2023-12-14T04:11:24;13.0;;;12.0;;
53939;SDS011;39850;43.324;21.916;2023-12-14T04:48:14;10.0;;;9.0;;
53939;SDS011;39850;43.324;21.916;2023-12-14T04:52:50;10.0;;;9.0;;
53939;SDS011;39850;43.324;21.916;2023-12-14T04:57:27;10.0;;;9.0;;
53939;SDS011;39850;43.324;21.916;2023-12-14T05:02:05;10.0;;;9.0;;
53939;SDS011;39850;43.324;21.916;2023-12-14T05:06:41;10.0;;;9.0;;
53939;SDS011;39850;43.324;21.916;2023-12-14T05:11:18;10.0;;;9.0;;
53939;SDS011;39850;43.324;21.916;2023-12-14T05:15:54;10.0;;;8.0;;
53939;SDS011;39850;43.324;21.916;2023-12-14T05:20:30;10.0;;;8.0;;
53939;SDS011;39850;43.324;21.916;2023-12-14T05:25:09;10.0;;;8.0;;
53939;SDS011;39850;43.324;21.916;2023-12-14T05:29:45;9.0;;;8.0;;
53939;SDS011;39850;43.324;21.916;2023-12-14T05:34:21;9.0;;;8.0;;
53939;SDS011;39850;43.324;21.916;2023-12-14T06:06:39;8.0;;;6.0;;
53939;SDS011;39850;43.324;21.916;2023-12-14T06:11:15;8.0;;;6.0;;
53939;SDS011;39850;43.324;21.916;2023-12-14T06:15:52;8.0;;;6.0;;
53939;SDS011;39850;43.324;21.916;2023-12-14T06:20:28;8.0;;;6.0;;
53939;SDS011;39850;43.324;21.916;2023-12-14T06:25:07;8.0;;;6.0;;
53939;SDS011;39850;43.324;21.916;2023-12-14T06:29:44;8.0;;;6.0;;
53939;SDS011;39850;43.324;21.916;2023-12-14T06:34:20;8.0;;;6.0;;
53939;SDS011;39850;43.324;21.916;2023-12-14T06:39:00;8.0;;;6.0;;
53939;SDS011;39850;43.324;21.916;2023-12-14T06:43:37;8.0;;;6.0;;
53939;SDS011;39850;43.324;21.916;2023-12-14T06:48:13;8.0;;;6.0;;
53939;SDS011;39850;43.324;21.916;2023-12-14T06:52:50;8.0;;;6.0;;
53939;SDS011;39850;43.324;21.916;2023-12-14T07:29:43;8.0;;;6.0;;
53939;SDS011;39850;43.324;21.916;2023-12-14T07:34:20;8.0;;;6.0;;
53939;SDS011;39850;43.324;21.916;2023-12-14T07:38:56;8.0;;;6.0;;
53939;SDS011;39850;43.324;21.916;2023-12-14T07:43:32;8.0;;;6.0;;
53939;SDS011;39850;43.324;21.916;2023-12-14T07:48:09;8.0;;;6.0;;
53939;SDS011;39850;43.324;21.916;2023-12-14T07:52:45;8.0;;;6.0;;
53939;SDS011;39850;43.324;21.916;2023-12-14T07:57:21;8.0;;;6.0;;
53939;SDS011;39850;43.324;21.916;2023-12-14T08:01:58;8.0;;;6.0;;
53939;SDS011;39850;43.324;21.916;2023-12-14T08:06:35;8.0;;;6.0;;
53939;SDS011;39850;43.324;21.916;2023-12-14T08:11:11;8.0;;;6.0;;
53939;SDS011;39850;43.324;21.916;2023-12-14T08:15:47;8.0;;;6.0;;
53939;SDS011;39850;43.324;21.916;2023-12-14T08:48:05;8.0;;;7.0;;
53939;SDS011;39850;43.324;21.916;2023-12-14T08:52:41;8.0;;;7.0;;
53939;SDS011;39850;43.324;21.916;2023-12-14T08:57:18;9.0;;;8.0;;
53939;SDS011;39850;43.324;21.916;2023-12-14T09:01:54;9.0;;;8.0;;
53939;SDS011;39850;43.324;21.916;2023-12-14T09:06:30;8.0;;;7.0;;
53939;SDS011;39850;43.324;21.916;2023-12-14T09:11:07;8.0;;;7.0;;
53939;SDS011;39850;43.324;21.916;2023-12-14T09:15:43;8.0;;;7.0;;
53939;SDS011;39850;43.324;21.916;2023-12-14T09:20:20;9.0;;;8.0;;
53939;SDS011;39850;43.324;21.916;2023-12-14T09:24:57;9.0;;;8.0;;
53939;SDS011;39850;43.324;21.916;2023-12-14T09:29:33;8.0;;;7.0;;
53939;SDS011;39850;43.324;21.916;2023-12-14T09:34:11;8.0;;;7.0;;
53939;SDS011;39850;43.324;21.916;2023-12-14T10:11:16;9.0;;;8.0;;
53939;SDS011;39850;43.324;21.916;2023-12-14T10:15:52;9.0;;;8.0;;
53939;SDS011;39850;43.324;21.916;2023-12-14T10:20:28;9.0;;;8.0;;
53939;SDS011;39850;43.324;21.916;2023-12-14T10:25:08;9.0;;;8.0;;
53939;SDS011;39850;43.324;21.916;2023-12-14T10:29:46;9.0;;;8.0;;
53939;SDS011;39850;43.324;21.916;2023-12-14T10:34:22;9.0;;;8.0;;
53939;SDS011;39850;43.324;21.916;2023-12-14T10:39:01;12.0;;;10.0;;
53939;SDS011;39850;43.324;21.916;2023-12-14T10:43:43;12.0;;;10.0;;
53939;SDS011;39850;43.324;21.916;2023-12-14T10:48:22;14.0;;;12.0;;
53939;SDS011;39850;43.324;21.916;2023-12-14T10:53:04;14.0;;;12.0;;
53939;SDS011;39850;43.324;21.916;2023-12-14T11:30:39;18.0;;;16.0;;
53939;SDS011;39850;43.324;21.916;2023-12-14T11:35:15;18.0;;;16.0;;
53939;SDS011;39850;43.324;21.916;2023-12-14T11:39:52;20.0;;;18.0;;
53939;SDS011;39850;43.324;21.916;2023-12-14T11:44:28;20.0;;;18.0;;
53939;SDS011;39850;43.324;21.916;2023-12-14T11:49:05;21.0;;;19.0;;
53939;SDS011;39850;43.324;21.916;2023-12-14T11:53:47;21.0;;;19.0;;
53939;SDS011;39850;43.324;21.916;2023-12-14T11:58:25;24.0;;;22.0;;
53939;SDS011;39850;43.324;21.916;2023-12-14T12:03:16;24.0;;;22.0;;
53939;SDS011;39850;43.324;21.916;2023-12-14T12:07:57;27.0;;;25.0;;
53939;SDS011;39850;43.324;21.916;2023-12-14T12:12:34;27.0;;;25.0;;
53939;SDS011;39850;43.324;21.916;2023-12-14T12:49:24;14.0;;;12.0;;
53939;SDS011;39850;43.324;21.916;2023-12-14T12:54:01;14.0;;;12.0;;
53939;SDS011;39850;43.324;21.916;2023-12-14T12:58:37;14.0;;;12.0;;
53939;SDS011;39850;43.324;21.916;2023-12-14T13:03:14;14.0;;;12.0;;
53939;SDS011;39850;43.324;21.916;2023-12-14T13:07:50;18.0;;;16.0;;
53939;SDS011;39850;43.324;21.916;2023-12-14T13:12:26;18.0;;;16.0;;
53939;SDS011;39850;43.324;21.916;2023-12-14T13:17:03;21.0;;;19.0;;
53939;SDS011;39850;43.324;21.916;2023-12-14T13:21:39;21.0;;;19.0;;
53939;SDS011;39850;43.324;21.916;2023-12-14T13:26:16;21.0;;;19.0;;
53939;SDS011;39850;43.324;21.916;2023-12-14T13:30:52;21.0;;;19.0;;
53939;SDS011;39850;43.324;21.916;2023-12-14T13:35:28;21.0;;;19.0;;
53939;SDS011;39850;43.324;21.916;2023-12-14T14:07:47;35.0;;;32.0;;
53939;SDS011;39850;43.324;21.916;2023-12-14T14:12:23;35.0;;;32.0;;
53939;SDS011;39850;43.324;21.916;2023-12-14T14:17:00;35.0;;;32.0;;
53939;SDS011;39850;43.324;21.916;2023-12-14T14:21:36;35.0;;;32.0;;
53939;SDS011;39850;43.324;21.916;2023-12-14T14:26:12;35.0;;;32.0;;
53939;SDS011;39850;43.324;21.916;2023-12-14T14:30:49;35.0;;;32.0;;
53939;SDS011;39850;43.324;21.916;2023-12-14T14:35:25;35.0;;;32.0;;
53939;SDS011;39850;43.324;21.916;2023-12-14T14:40:06;34.0;;;32.0;;
53939;SDS011;39850;43.324;21.916;2023-12-14T14:44:43;34.0;;;32.0;;
53939;SDS011;39850;43.324;21.916;2023-12-14T14:49:19;34.0;;;32.0;;
53939;SDS011;39850;43.324;21.916;2023-12-14T14:53:56;34.0;;;32.0;;
53939;SDS011;39850;43.324;21.916;2023-12-14T15:30:46;39.0;;;34.0;;
53939;SDS011;39850;43.324;21.916;2023-12-14T15:35:23;39.0;;;34.0;;
53939;SDS011;39850;43.324;21.916;2023-12-14T15:39:59;40.0;;;34.0;;
53939;SDS011;39850;43.324;21.916;2023-12-14T15:44:35;40.0;;;34.0;;
53939;SDS011;39850;43.324;21.916;2023-12-14T15:49:11;41.0;;;35.0;;
53939;SDS011;39850;43.324;21.916;2023-12-14T15:53:48;41.0;;;35.0;;
53939;SDS011;39850;43.324;21.916;2023-12-14T15:58:25;50.0;;;42.0;;
53939;SDS011;39850;43.324;21.916;2023-12-14T16:03:02;50.0;;;42.0;;
53939;SDS011;39850;43.324;21.916;2023-12-14T16:07:38;58.0;;;48.0;;
53939;SDS011;39850;43.324;21.916;2023-12-14T16:12:14;58.0;;;48.0;;
53939;SDS011;39850;43.324;21.916;2023-12-14T16:16:51;58.0;;;48.0;;
53939;SDS011;39850;43.324;21.916;2023-12-14T16:49:07;44.0;;;41.0;;
53939;SDS011;39850;43.324;21.916;2023-12-14T16:53:43;44.0;;;41.0;;
53939;SDS011;39850;43.324;21.916;2023-12-14T16:58:19;54.0;;;48.0;;
53939;SDS011;39850;43.324;21.916;2023-12-14T17:02:55;54.0;;;48.0;;
53939;SDS011;39850;43.324;21.916;2023-12-14T17:07:32;54.0;;;48.0;;
53939;SDS011;39850;43.324;21.916;2023-12-14T17:12:08;59.0;;;51.0;;
53939;SDS011;39850;43.324;21.916;2023-12-14T17:16:46;59.0;;;51.0;;
53939;SDS011;39850;43.324;21.916;2023-12-14T17:21:28;62.0;;;54.0;;
53939;SDS011;39850;43.324;21.916;2023-12-14T17:26:05;62.0;;;54.0;;
53939;SDS011;39850;43.324;21.916;2023-12-14T17:30:41;59.0;;;51.0;;
53939;SDS011;39850;43.324;21.916;2023-12-14T17:35:18;59.0;;;51.0;;
53939;SDS011;39850;43.324;21.916;2023-12-14T18:12:08;55.0;;;51.0;;
53939;SDS011;39850;43.324;21.916;2023-12-14T18:16:44;55.0;;;51.0;;
53939;SDS011;39850;43.324;21.916;2023-12-14T18:21:21;70.0;;;63.0;;
53939;SDS011;39850;43.324;21.916;2023-12-14T18:25:57;70.0;;;63.0;;
53939;SDS011;39850;43.324;21.916;2023-12-14T18:30:33;77.0;;;67.0;;
53939;SDS011;39850;43.324;21.916;2023-12-14T18:35:10;77.0;;;67.0;;
53939;SDS011;39850;43.324;21.916;2023-12-14T18:39:46;81.0;;;71.0;;
53939;SDS011;39850;43.324;21.916;2023-12-14T18:44:22;81.0;;;71.0;;
53939;SDS011;39850;43.324;21.916;2023-12-14T18:48:59;77.0;;;67.0;;
53939;SDS011;39850;43.324;21.916;2023-12-14T18:53:35;77.0;;;67.0;;
53939;SDS011;39850;43.324;21.916;2023-12-14T19:30:32;46.0;;;43.0;;
53939;SDS011;39850;43.324;21.916;2023-12-14T19:35:09;46.0;;;43.0;;
53939;SDS011;39850;43.324;21.916;2023-12-14T19:39:46;54.0;;;50.0;;
53939;SDS011;39850;43.324;21.916;2023-12-14T19:44:22;54.0;;;50.0;;
53939;SDS011;39850;43.324;21.916;2023-12-14T19:48:58;63.0;;;56.0;;
53939;SDS011;39850;43.324;21.916;2023-12-14T19:53:35;63.0;;;56.0;;
53939;SDS011;39850;43.324;21.916;2023-12-14T19:58:11;63.0;;;56.0;;
53939;SDS011;39850;43.324;21.916;2023-12-14T20:02:47;70.0;;;62.0;;
53939;SDS011;39850;43.324;21.916;2023-12-14T20:07:24;70.0;;;62.0;;
53939;SDS011;39850;43.324;21.916;2023-12-14T20:12:00;76.0;;;69.0;;
53939;SDS011;39850;43.324;21.916;2023-12-14T20:16:36;76.0;;;69.0;;
53939;SDS011;39850;43.324;21.916;2023-12-14T20:48:53;57.0;;;53.0;;
53939;SDS011;39850;43.324;21.916;2023-12-14T20:53:29;57.0;;;53.0;;
53939;SDS011;39850;43.324;21.916;2023-12-14T20:58:06;57.0;;;53.0;;
53939;SDS011;39850;43.324;21.916;2023-12-14T21:02:42;60.0;;;55.0;;
53939;SDS011;39850;43.324;21.916;2023-12-14T21:07:18;60.0;;;55.0;;
53939;SDS011;39850;43.324;21.916;2023-12-14T21:11:55;58.0;;;54.0;;
53939;SDS011;39850;43.324;21.916;2023-12-14T21:16:32;58.0;;;54.0;;
53939;SDS011;39850;43.324;21.916;2023-12-14T21:21:08;60.0;;;56.0;;
53939;SDS011;39850;43.324;21.916;2023-12-14T21:25:44;60.0;;;56.0;;
53939;SDS011;39850;43.324;21.916;2023-12-14T21:30:22;58.0;;;54.0;;
53939;SDS011;39850;43.324;21.916;2023-12-14T21:34:58;58.0;;;54.0;;
53939;SDS011;39850;43.324;21.916;2023-12-14T22:11:50;24.0;;;25.0;;
53939;SDS011;39850;43.324;21.916;2023-12-14T22:16:26;24.0;;;25.0;;
53939;SDS011;39850;43.324;21.916;2023-12-14T22:21:03;24.0;;;24.0;;
53939;SDS011;39850;43.324;21.916;2023-12-14T22:25:40;24.0;;;24.0;;
53939;SDS011;39850;43.324;21.916;2023-12-14T22:30:16;24.0;;;25.0;;
53939;SDS011;39850;43.324;21.916;2023-12-14T22:34:52;24.0;;;25.0;;
53939;SDS011;39850;43.324;21.916;2023-12-14T22:39:29;24.0;;;24.0;;
53939;SDS011;39850;43.324;21.916;2023-12-14T22:44:06;24.0;;;24.0;;
53939;SDS011;39850;43.324;21.916;2023-12-14T22:48:43;24.0;;;24.0;;
53939;SDS011;39850;43.324;21.916;2023-12-14T22:53:19;24.0;;;25.0;;
53939;SDS011;39850;43.324;21.916;2023-12-14T22:57:56;24.0;;;25.0;;
53939;SDS011;39850;43.324;21.916;2023-12-14T23:30:12;24.0;;;24.0;;
53939;SDS011;39850;43.324;21.916;2023-12-14T23:34:49;24.0;;;24.0;;
53939;SDS011;39850;43.324;21.916;2023-12-14T23:39:26;23.0;;;24.0;;
53939;SDS011;39850;43.324;21.916;2023-12-14T23:44:02;23.0;;;24.0;;
53939;SDS011;39850;43.324;21.916;2023-12-14T23:48:38;23.0;;;24.0;;
53939;SDS011;39850;43.324;21.916;2023-12-14T23:53:15;24.0;;;24.0;;
53939;SDS011;39850;43.324;21.916;2023-12-14T23:57:51;24.0;;;24.0;;
